Time;durP1;ratioP1;P1;durP2;ratioP2;P2;SDS_P1;SDS_P2;PMS_P1;PMS_P2;Temp;Humidity;BMP_temperature;BMP_pressure;BME280_temperature;BME280_humidity;BME280_pressure;Samples;Min_cycle;Max_cycle;Signal;HPM_P1;HPM_P2
2021/07/31 00:03:37;;;;;;;8.40;4.28;;;;;;;;;;8222354;28;20492;-72
2021/07/31 00:08:02;;;;;;;7.47;4.68;;;;;;;;;;8192392;28;20368;-73
2021/07/31 00:12:07;;;;;;;11.88;4.47;;;;;;;;;;8193289;28;20490;-73
2021/07/31 00:16:12;;;;;;;7.15;4.45;;;;;;;;;;8193781;28;20453;-73
2021/07/31 00:20:17;;;;;;;6.93;4.43;;;;;;;;;;8195664;28;20038;-75
2021/07/31 00:24:22;;;;;;;10.50;4.68;;;;;;;;;;8191418;28;20464;-73
2021/07/31 00:28:27;;;;;;;7.40;5.25;;;;;;;;;;8192154;28;20069;-73
2021/07/31 00:32:31;;;;;;;10.07;4.68;;;;;;;;;;8192002;28;20481;-73
2021/07/31 00:36:37;;;;;;;6.82;4.47;;;;;;;;;;8191761;28;20454;-72
2021/07/31 00:40:42;;;;;;;7.50;4.43;;;;;;;;;;8208241;28;20380;-72
2021/07/31 00:44:47;;;;;;;6.72;4.50;;;;;;;;;;8193302;28;20368;-73
2021/07/31 00:48:53;;;;;;;8.32;4.90;;;;;;;;;;8177042;28;20368;-73
2021/07/31 00:53:00;;;;;;;11.67;4.63;;;;;;;;;;8191295;28;20360;-72
2021/07/31 00:57:05;;;;;;;10.02;4.30;;;;;;;;;;8190471;28;20050;-73
2021/07/31 01:01:28;;;;;;;7.45;4.78;;;;;;;;;;8190239;28;20041;-73
2021/07/31 01:05:34;;;;;;;13.35;4.57;;;;;;;;;;8190919;28;20496;-73
2021/07/31 01:09:39;;;;;;;9.98;4.47;;;;;;;;;;8190344;28;20421;-73
2021/07/31 01:13:45;;;;;;;11.65;4.25;;;;;;;;;;8192030;28;20349;-73
2021/07/31 01:17:51;;;;;;;7.45;4.78;;;;;;;;;;8207041;28;20461;-72
2021/07/31 01:21:56;;;;;;;9.52;4.75;;;;;;;;;;8190300;28;20042;-72
2021/07/31 01:26:08;;;;;;;9.40;4.68;;;;;;;;;;8191451;28;20057;-72
2021/07/31 01:30:14;;;;;;;9.07;4.43;;;;;;;;;;8191541;28;20453;-72
2021/07/31 01:34:21;;;;;;;7.90;4.47;;;;;;;;;;8205922;28;20389;-72
2021/07/31 01:38:28;;;;;;;8.48;4.63;;;;;;;;;;8189604;28;20458;-72
2021/07/31 01:42:33;;;;;;;6.85;4.65;;;;;;;;;;8191084;28;20471;-73
2021/07/31 01:46:38;;;;;;;12.23;4.95;;;;;;;;;;8192914;28;20500;-72
2021/07/31 01:50:44;;;;;;;7.93;4.60;;;;;;;;;;8192079;28;20491;-73
2021/07/31 01:54:50;;;;;;;8.07;4.43;;;;;;;;;;8174389;28;20484;-73
2021/07/31 01:58:57;;;;;;;6.82;4.47;;;;;;;;;;8196759;28;20388;-73
2021/07/31 02:03:04;;;;;;;12.68;4.55;;;;;;;;;;8197571;28;20484;-72
2021/07/31 02:07:18;;;;;;;7.57;3.90;;;;;;;;;;8203603;28;20469;-72
2021/07/31 02:11:23;;;;;;;10.88;4.30;;;;;;;;;;8216978;28;20396;-72
2021/07/31 02:15:40;;;;;;;8.68;4.75;;;;;;;;;;8196383;28;20042;-72
2021/07/31 02:19:44;;;;;;;7.78;4.63;;;;;;;;;;8195280;28;20369;-72
2021/07/31 02:24:05;;;;;;;7.75;4.18;;;;;;;;;;8195549;28;20373;-72
2021/07/31 02:28:31;;;;;;;8.30;4.20;;;;;;;;;;8174957;28;20369;-72
2021/07/31 02:32:37;;;;;;;7.95;4.13;;;;;;;;;;8195983;28;20396;-73
2021/07/31 02:36:42;;;;;;;5.72;3.70;;;;;;;;;;8195796;28;20491;-73
2021/07/31 02:41:09;;;;;;;6.80;4.10;;;;;;;;;;8194814;28;20365;-72
2021/07/31 02:45:15;;;;;;;7.90;4.65;;;;;;;;;;8195140;28;20476;-72
2021/07/31 02:49:21;;;;;;;5.80;3.97;;;;;;;;;;8195329;28;20366;-73
2021/07/31 02:53:27;;;;;;;8.20;4.10;;;;;;;;;;8195981;28;20489;-72
2021/07/31 02:57:34;;;;;;;10.77;4.88;;;;;;;;;;8195173;28;20497;-72
2021/07/31 03:01:38;;;;;;;11.52;3.97;;;;;;;;;;8196064;28;20042;-72
2021/07/31 03:05:58;;;;;;;6.60;4.57;;;;;;;;;;8208537;28;20449;-72
2021/07/31 03:10:03;;;;;;;7.95;4.93;;;;;;;;;;8193072;28;20495;-72
2021/07/31 03:14:14;;;;;;;15.32;5.60;;;;;;;;;;8193828;28;20331;-72
2021/07/31 03:18:22;;;;;;;7.85;4.10;;;;;;;;;;8208786;28;20366;-73
2021/07/31 03:22:27;;;;;;;7.60;4.20;;;;;;;;;;8195019;28;20365;-72
2021/07/31 03:26:38;;;;;;;10.77;4.28;;;;;;;;;;8194461;28;20465;-72
2021/07/31 03:30:48;;;;;;;6.68;4.47;;;;;;;;;;8193143;28;20354;-72
2021/07/31 03:34:55;;;;;;;7.50;4.13;;;;;;;;;;8194771;28;20507;-72
2021/07/31 03:39:00;;;;;;;6.97;4.03;;;;;;;;;;8191861;28;20461;-73
2021/07/31 03:43:40;;;;;;;8.07;4.25;;;;;;;;;;8208623;28;20388;-72
2021/07/31 03:47:46;;;;;;;6.05;3.75;;;;;;;;;;8197156;28;20469;-72
2021/07/31 03:51:55;;;;;;;9.38;4.25;;;;;;;;;;8192331;28;20049;-72
2021/07/31 03:56:03;;;;;;;7.55;4.53;;;;;;;;;;8191956;28;20046;-72
2021/07/31 04:00:12;;;;;;;4.93;3.67;;;;;;;;;;8206916;28;20072;-72
2021/07/31 04:04:17;;;;;;;11.93;4.53;;;;;;;;;;8193946;28;20038;-71
2021/07/31 04:08:23;;;;;;;5.90;3.75;;;;;;;;;;8194965;28;20469;-72
2021/07/31 04:12:47;;;;;;;8.18;4.03;;;;;;;;;;8193268;28;20473;-72
2021/07/31 04:17:11;;;;;;;6.57;4.53;;;;;;;;;;8193753;28;20365;-71
2021/07/31 04:21:18;;;;;;;;;;;;;;;;;;8207171;28;20042;-72
2021/07/31 04:25:24;;;;;;;6.05;4.18;;;;;;;;;;8192936;28;20356;-73
2021/07/31 04:29:29;;;;;;;7.38;3.67;;;;;;;;;;8207821;28;20357;-73
2021/07/31 04:33:34;;;;;;;9.40;4.03;;;;;;;;;;8191195;28;20353;-73
2021/07/31 04:37:39;;;;;;;5.43;3.88;;;;;;;;;;8193362;28;20369;-73
2021/07/31 04:41:46;;;;;;;6.67;4.23;;;;;;;;;;8193032;28;20123;-72
2021/07/31 04:45:51;;;;;;;5.53;3.65;;;;;;;;;;8192373;28;20478;-73
2021/07/31 04:49:56;;;;;;;7.75;4.07;;;;;;;;;;8192286;28;20481;-73
2021/07/31 04:54:01;;;;;;;11.90;3.92;;;;;;;;;;8076679;28;20477;-72
2021/07/31 04:58:06;;;;;;;11.07;4.05;;;;;;;;;;8192300;28;20441;-72
2021/07/31 05:02:11;;;;;;;9.82;3.90;;;;;;;;;;8193254;28;20419;-72
2021/07/31 05:06:16;;;;;;;9.60;4.00;;;;;;;;;;8191842;28;20380;-73
2021/07/31 05:10:21;;;;;;;6.78;4.05;;;;;;;;;;8192207;28;20330;-73
2021/07/31 05:14:26;;;;;;;7.45;4.10;;;;;;;;;;8192704;28;20064;-73
2021/07/31 05:18:31;;;;;;;5.05;3.58;;;;;;;;;;8193491;28;20502;-73
2021/07/31 05:22:35;;;;;;;5.82;4.22;;;;;;;;;;8190176;28;20453;-73
2021/07/31 05:26:40;;;;;;;7.32;4.20;;;;;;;;;;8190500;28;20364;-73
2021/07/31 05:30:46;;;;;;;7.38;4.30;;;;;;;;;;8194990;28;20397;-73
2021/07/31 05:34:55;;;;;;;12.73;4.63;;;;;;;;;;8198577;28;20372;-72
2021/07/31 05:39:00;;;;;;;8.70;3.72;;;;;;;;;;8181496;28;20484;-73
2021/07/31 05:43:06;;;;;;;8.90;5.15;;;;;;;;;;8196612;28;20042;-72
2021/07/31 05:47:11;;;;;;;7.93;5.10;;;;;;;;;;8211876;28;20442;-72
2021/07/31 05:51:16;;;;;;;9.75;5.15;;;;;;;;;;8196953;28;20054;-73
2021/07/31 05:55:21;;;;;;;9.77;4.68;;;;;;;;;;8197163;28;20484;-73
2021/07/31 05:59:26;;;;;;;9.93;4.63;;;;;;;;;;8196515;28;20365;-72
2021/07/31 06:03:31;;;;;;;7.80;5.22;;;;;;;;;;8212462;28;20469;-72
2021/07/31 06:07:36;;;;;;;10.80;5.35;;;;;;;;;;8197226;28;20473;-73
2021/07/31 06:11:42;;;;;;;9.10;4.28;;;;;;;;;;8199338;28;20473;-72
2021/07/31 06:15:47;;;;;;;9.68;4.90;;;;;;;;;;8184863;28;20072;-73
2021/07/31 06:19:52;;;;;;;8.48;4.97;;;;;;;;;;8197350;28;20041;-73
2021/07/31 06:23:56;;;;;;;10.88;5.10;;;;;;;;;;8195795;28;20373;-73
2021/07/31 06:28:01;;;;;;;13.35;5.13;;;;;;;;;;8197431;28;20339;-73
2021/07/31 06:32:06;;;;;;;13.43;5.07;;;;;;;;;;8196195;28;20473;-72
2021/07/31 06:36:11;;;;;;;11.20;5.15;;;;;;;;;;8194058;28;20108;-74
2021/07/31 06:42:33;;;;;;;10.57;5.00;;;;;;;;;;8214372;27;1272642;-74
2021/07/31 06:46:39;;;;;;;14.00;6.05;;;;;;;;;;8284469;28;20378;-73
2021/07/31 06:50:44;;;;;;;9.95;5.13;;;;;;;;;;8284186;28;20375;-73
2021/07/31 06:54:49;;;;;;;12.18;5.03;;;;;;;;;;8285040;28;20329;-74
2021/07/31 06:58:55;;;;;;;12.40;5.57;;;;;;;;;;8284921;28;20071;-73
2021/07/31 07:03:00;;;;;;;10.15;5.10;;;;;;;;;;8287228;28;20367;-73
2021/07/31 07:07:05;;;;;;;18.02;6.25;;;;;;;;;;8284806;28;20049;-72
2021/07/31 07:11:16;;;;;;;9.13;5.40;;;;;;;;;;8285512;28;20345;-72
2021/07/31 07:15:21;;;;;;;11.07;5.40;;;;;;;;;;8283538;28;20382;-74
2021/07/31 07:19:27;;;;;;;10.43;5.38;;;;;;;;;;8299866;28;20355;-73
2021/07/31 07:23:32;;;;;;;9.88;4.60;;;;;;;;;;8284187;28;20479;-73
2021/07/31 07:27:37;;;;;;;8.32;4.93;;;;;;;;;;8283954;28;20479;-73
2021/07/31 07:31:42;;;;;;;9.05;4.47;;;;;;;;;;8296923;28;20472;-74
2021/07/31 07:35:47;;;;;;;6.15;3.85;;;;;;;;;;8284813;28;20483;-72
2021/07/31 07:39:53;;;;;;;8.75;4.47;;;;;;;;;;8262544;28;20060;-73
2021/07/31 07:43:59;;;;;;;10.02;4.47;;;;;;;;;;8283727;28;20410;-72
2021/07/31 07:48:06;;;;;;;10.35;3.70;;;;;;;;;;8282150;28;20394;-73
2021/07/31 07:52:12;;;;;;;9.52;4.00;;;;;;;;;;8269694;28;20494;-73
2021/07/31 07:56:19;;;;;;;6.85;3.97;;;;;;;;;;8227933;28;20406;-73
2021/07/31 08:00:23;;;;;;;6.97;3.88;;;;;;;;;;8262876;28;20045;-74
2021/07/31 08:04:32;;;;;;;6.65;3.33;;;;;;;;;;8176251;28;20483;-73
2021/07/31 08:08:36;;;;;;;5.78;3.53;;;;;;;;;;8260799;28;20126;-74
2021/07/31 08:12:40;;;;;;;8.25;3.45;;;;;;;;;;8259464;28;20037;-73
2021/07/31 08:16:46;;;;;;;6.95;3.55;;;;;;;;;;8276233;28;20053;-73
2021/07/31 08:20:51;;;;;;;5.43;3.58;;;;;;;;;;8241955;28;20460;-72
2021/07/31 08:24:55;;;;;;;5.13;3.35;;;;;;;;;;8258302;28;20059;-71
2021/07/31 08:29:01;;;;;;;5.40;3.10;;;;;;;;;;8229324;28;20460;-73
2021/07/31 08:33:05;;;;;;;5.90;3.40;;;;;;;;;;8232414;28;20371;-74
2021/07/31 08:37:12;;;;;;;5.47;2.70;;;;;;;;;;8248125;28;20470;-76
2021/07/31 08:41:16;;;;;;;4.38;2.92;;;;;;;;;;8251335;28;20495;-73
2021/07/31 08:45:20;;;;;;;4.15;3.00;;;;;;;;;;8255139;28;20479;-74
2021/07/31 08:49:24;;;;;;;5.97;3.15;;;;;;;;;;8217504;28;20704;-73
2021/07/31 08:53:31;;;;;;;4.53;3.10;;;;;;;;;;8247879;28;20453;-74
2021/07/31 08:57:34;;;;;;;6.32;3.83;;;;;;;;;;8236368;28;20471;-74
2021/07/31 09:01:39;;;;;;;14.13;7.90;;;;;;;;;;8275402;28;20360;-73
2021/07/31 09:05:44;;;;;;;17.52;8.73;;;;;;;;;;8242020;28;20455;-73
2021/07/31 09:09:48;;;;;;;6.32;3.90;;;;;;;;;;8237185;28;20034;-73
2021/07/31 09:14:15;;;;;;;5.65;3.53;;;;;;;;;;8254698;28;20480;-73
2021/07/31 09:18:31;;;;;;;10.07;3.60;;;;;;;;;;8253706;28;20484;-73
2021/07/31 09:22:52;;;;;;;5.40;3.20;;;;;;;;;;8222676;28;20469;-73
2021/07/31 09:26:58;;;;;;;6.25;3.33;;;;;;;;;;8239710;28;20433;-73
2021/07/31 09:31:03;;;;;;;8.95;4.50;;;;;;;;;;8221448;28;20067;-72
2021/07/31 09:35:24;;;;;;;14.82;8.40;;;;;;;;;;8225450;28;20478;-74
2021/07/31 09:39:48;;;;;;;5.40;3.22;;;;;;;;;;8224123;28;20384;-74
2021/07/31 09:44:16;;;;;;;3.97;2.78;;;;;;;;;;8225149;28;20485;-73
2021/07/31 09:48:22;;;;;;;7.00;3.22;;;;;;;;;;8227340;28;20464;-73
2021/07/31 09:52:28;;;;;;;4.45;3.00;;;;;;;;;;8225927;28;20353;-73
2021/07/31 09:56:49;;;;;;;6.07;2.88;;;;;;;;;;8225604;28;20441;-74
2021/07/31 10:00:55;;;;;;;4.95;2.72;;;;;;;;;;8256937;28;20498;-72
2021/07/31 10:05:01;;;;;;;4.47;2.60;;;;;;;;;;8257484;28;20360;-73
2021/07/31 10:09:08;;;;;;;4.00;3.10;;;;;;;;;;8224089;28;20503;-74
2021/07/31 10:13:13;;;;;;;4.53;2.65;;;;;;;;;;8224860;28;20041;-73
2021/07/31 10:17:26;;;;;;;4.47;2.53;;;;;;;;;;8207686;28;20461;-73
2021/07/31 10:21:36;;;;;;;4.05;2.83;;;;;;;;;;8228854;28;20065;-73
2021/07/31 10:26:10;;;;;;;3.38;2.38;;;;;;;;;;8227186;28;20094;-72
2021/07/31 10:30:38;;;;;;;7.05;2.78;;;;;;;;;;8222763;28;20372;-73
2021/07/31 10:34:56;;;;;;;4.70;2.67;;;;;;;;;;8223126;28;20488;-73
2021/07/31 10:39:26;;;;;;;4.65;2.67;;;;;;;;;;8222754;28;20053;-74
2021/07/31 10:43:32;;;;;;;4.97;2.70;;;;;;;;;;8221438;28;20491;-74
2021/07/31 10:47:36;;;;;;;4.05;2.78;;;;;;;;;;8223518;28;20399;-73
2021/07/31 10:51:43;;;;;;;4.82;3.10;;;;;;;;;;8255864;28;20484;-72
2021/07/31 10:55:48;;;;;;;5.15;3.10;;;;;;;;;;8223627;28;20045;-73
2021/07/31 11:00:28;;;;;;;6.82;3.45;;;;;;;;;;8224901;28;20368;-73
2021/07/31 11:05:00;;;;;;;5.43;3.17;;;;;;;;;;8222293;28;20068;-72
2021/07/31 11:09:14;;;;;;;3.70;2.40;;;;;;;;;;8208724;28;20340;-73
2021/07/31 11:13:20;;;;;;;8.48;3.10;;;;;;;;;;8240677;28;20372;-73
2021/07/31 11:17:25;;;;;;;9.55;3.72;;;;;;;;;;8222067;28;20479;-72
2021/07/31 11:21:30;;;;;;;4.85;3.30;;;;;;;;;;8238915;28;20345;-72
2021/07/31 11:25:36;;;;;;;4.97;3.20;;;;;;;;;;8223769;28;20041;-73
2021/07/31 11:29:54;;;;;;;4.95;3.05;;;;;;;;;;8229925;28;20337;-73
2021/07/31 11:34:02;;;;;;;5.63;3.25;;;;;;;;;;8229633;28;20053;-73
2021/07/31 11:38:36;;;;;;;3.33;2.60;;;;;;;;;;8183907;28;20377;-73
2021/07/31 11:42:43;;;;;;;5.43;3.00;;;;;;;;;;8228713;28;20491;-72
2021/07/31 11:46:48;;;;;;;6.93;2.85;;;;;;;;;;8228094;28;20985;-73
2021/07/31 11:51:07;;;;;;;4.53;2.97;;;;;;;;;;8227375;28;20468;-74
2021/07/31 11:55:25;;;;;;;16.05;3.65;;;;;;;;;;8228599;28;20468;-73
2021/07/31 11:59:34;;;;;;;4.43;3.25;;;;;;;;;;8228795;28;20357;-74
2021/07/31 12:03:44;;;;;;;4.30;2.97;;;;;;;;;;8229875;28;20469;-73
2021/07/31 12:07:56;;;;;;;3.42;2.80;;;;;;;;;;8211482;28;20362;-72
2021/07/31 12:12:01;;;;;;;5.78;3.10;;;;;;;;;;8210692;28;20376;-73
2021/07/31 12:16:06;;;;;;;4.47;2.88;;;;;;;;;;8243795;28;20474;-74
2021/07/31 12:20:11;;;;;;;4.88;3.08;;;;;;;;;;8229091;28;20049;-74
2021/07/31 12:24:18;;;;;;;3.80;2.80;;;;;;;;;;8227270;28;20072;-73
2021/07/31 12:28:52;;;;;;;4.00;3.33;;;;;;;;;;8227334;28;20457;-73
2021/07/31 12:32:59;;;;;;;5.10;3.10;;;;;;;;;;8243837;28;20482;-73
2021/07/31 12:37:04;;;;;;;4.47;2.75;;;;;;;;;;8227525;28;20372;-73
2021/07/31 12:41:10;;;;;;;4.80;3.40;;;;;;;;;;8180734;28;20393;-73
2021/07/31 12:45:16;;;;;;;5.13;3.15;;;;;;;;;;8240817;28;20360;-73
2021/07/31 12:49:21;;;;;;;3.35;2.67;;;;;;;;;;8226824;28;20056;-73
2021/07/31 12:53:27;;;;;;;5.93;2.60;;;;;;;;;;8228223;28;20042;-74
2021/07/31 12:57:32;;;;;;;5.30;3.03;;;;;;;;;;8228371;28;20479;-73
2021/07/31 13:01:38;;;;;;;4.25;2.88;;;;;;;;;;8227347;28;20494;-74
2021/07/31 13:05:44;;;;;;;6.10;3.10;;;;;;;;;;8188328;28;20407;-72
2021/07/31 13:09:49;;;;;;;3.53;2.88;;;;;;;;;;8226558;28;20408;-73
2021/07/31 13:13:55;;;;;;;4.78;2.65;;;;;;;;;;8226516;28;20369;-73
2021/07/31 13:18:01;;;;;;;3.80;3.00;;;;;;;;;;8209103;28;20472;-73
2021/07/31 13:22:08;;;;;;;3.50;2.80;;;;;;;;;;8224878;28;20349;-73
2021/07/31 13:26:13;;;;;;;3.45;2.75;;;;;;;;;;8225968;28;20067;-74
2021/07/31 13:30:19;;;;;;;5.22;2.85;;;;;;;;;;8257735;28;20489;-73
2021/07/31 13:34:24;;;;;;;4.15;2.85;;;;;;;;;;8225623;28;20046;-74
2021/07/31 13:38:34;;;;;;;4.68;2.42;;;;;;;;;;8256397;28;20468;-72
2021/07/31 13:42:38;;;;;;;6.70;3.00;;;;;;;;;;8239792;28;20507;-73
2021/07/31 13:46:45;;;;;;;6.47;3.75;;;;;;;;;;8227201;28;20345;-72
2021/07/31 13:50:51;;;;;;;3.80;2.85;;;;;;;;;;8208533;28;20411;-72
2021/07/31 13:54:56;;;;;;;15.05;3.88;;;;;;;;;;8227761;28;20091;-73
2021/07/31 13:59:04;;;;;;;4.78;3.08;;;;;;;;;;8225499;28;20352;-74
2021/07/31 14:03:09;;;;;;;5.25;2.80;;;;;;;;;;8207761;28;20476;-73
2021/07/31 14:07:15;;;;;;;4.10;2.88;;;;;;;;;;8224049;28;20072;-72
2021/07/31 14:11:20;;;;;;;5.15;3.22;;;;;;;;;;8257771;28;20376;-72
2021/07/31 14:15:26;;;;;;;4.20;2.92;;;;;;;;;;8208295;28;20475;-71
2021/07/31 14:19:33;;;;;;;6.35;2.65;;;;;;;;;;8223376;28;20064;-74
2021/07/31 14:23:38;;;;;;;4.32;2.95;;;;;;;;;;8256109;28;20485;-72
2021/07/31 14:27:43;;;;;;;10.13;3.10;;;;;;;;;;8226771;28;20465;-73
2021/07/31 14:31:49;;;;;;;3.90;3.10;;;;;;;;;;8257100;28;20416;-73
2021/07/31 14:35:54;;;;;;;5.97;3.60;;;;;;;;;;8225299;28;20385;-73
2021/07/31 14:39:59;;;;;;;4.53;2.92;;;;;;;;;;8223444;28;20592;-73
2021/07/31 14:44:05;;;;;;;7.47;3.25;;;;;;;;;;8224078;28;20456;-73
2021/07/31 14:48:12;;;;;;;6.25;3.30;;;;;;;;;;8240314;28;20330;-72
2021/07/31 14:52:17;;;;;;;7.60;3.30;;;;;;;;;;8224007;28;20475;-73
2021/07/31 14:56:22;;;;;;;5.22;3.10;;;;;;;;;;8224635;28;20033;-74
2021/07/31 15:00:27;;;;;;;6.20;2.83;;;;;;;;;;8225590;28;20344;-72
2021/07/31 15:04:32;;;;;;;5.65;3.50;;;;;;;;;;8231202;28;20067;-73
2021/07/31 15:08:37;;;;;;;5.25;3.20;;;;;;;;;;8244598;28;20045;-73
2021/07/31 15:12:42;;;;;;;7.20;3.30;;;;;;;;;;8230537;28;20483;-72
2021/07/31 15:16:46;;;;;;;10.57;3.75;;;;;;;;;;8245249;28;20364;-72
2021/07/31 15:20:51;;;;;;;7.40;3.45;;;;;;;;;;8228273;28;20384;-72
2021/07/31 15:24:56;;;;;;;5.82;3.28;;;;;;;;;;8227856;28;20360;-73
2021/07/31 15:29:00;;;;;;;9.40;3.75;;;;;;;;;;8261500;28;20396;-72
2021/07/31 15:33:05;;;;;;;4.22;3.25;;;;;;;;;;8229280;28;20041;-73
2021/07/31 15:37:09;;;;;;;6.18;2.85;;;;;;;;;;8229154;28;20494;-72
2021/07/31 15:41:14;;;;;;;6.88;3.40;;;;;;;;;;8230090;28;20494;-73
2021/07/31 15:45:19;;;;;;;4.60;3.58;;;;;;;;;;8260523;28;20356;-72
2021/07/31 15:49:25;;;;;;;4.97;2.90;;;;;;;;;;8227194;28;20478;-73
2021/07/31 15:53:30;;;;;;;6.38;3.15;;;;;;;;;;8228757;28;20456;-73
2021/07/31 15:57:34;;;;;;;9.75;3.25;;;;;;;;;;8212537;28;20494;-74
2021/07/31 16:01:39;;;;;;;4.90;2.97;;;;;;;;;;8243588;28;20482;-73
2021/07/31 16:05:45;;;;;;;4.18;2.88;;;;;;;;;;8209238;28;20487;-74
2021/07/31 16:09:49;;;;;;;4.15;2.75;;;;;;;;;;8259441;28;20498;-73
2021/07/31 16:13:54;;;;;;;4.43;2.42;;;;;;;;;;8226146;28;20487;-73
2021/07/31 16:18:01;;;;;;;4.43;3.20;;;;;;;;;;8228740;28;20459;-73
2021/07/31 16:22:06;;;;;;;4.90;2.58;;;;;;;;;;8227650;28;20469;-73
2021/07/31 16:26:12;;;;;;;5.38;2.72;;;;;;;;;;8228120;28;20045;-74
2021/07/31 16:30:16;;;;;;;4.63;3.30;;;;;;;;;;8226957;28;20045;-73
2021/07/31 16:34:20;;;;;;;6.57;3.28;;;;;;;;;;8231600;28;20616;-72
2021/07/31 16:38:26;;;;;;;5.95;3.13;;;;;;;;;;8227991;28;20499;-72
2021/07/31 16:42:29;;;;;;;5.85;3.30;;;;;;;;;;8210592;28;20437;-73
2021/07/31 16:46:35;;;;;;;4.88;3.10;;;;;;;;;;8229042;28;20049;-73
2021/07/31 16:50:39;;;;;;;5.80;2.92;;;;;;;;;;8226791;28;20041;-71
2021/07/31 16:54:44;;;;;;;9.25;3.00;;;;;;;;;;8219513;28;20372;-73
2021/07/31 16:58:50;;;;;;;5.80;3.75;;;;;;;;;;8242744;28;20064;-72
2021/07/31 17:02:56;;;;;;;6.00;3.28;;;;;;;;;;8242331;28;20357;-73
2021/07/31 17:07:04;;;;;;;4.45;3.35;;;;;;;;;;8228529;28;20350;-72
2021/07/31 17:11:09;;;;;;;5.25;3.38;;;;;;;;;;8244127;28;20360;-73
2021/07/31 17:15:16;;;;;;;7.25;3.75;;;;;;;;;;8225174;28;20471;-72
2021/07/31 17:19:22;;;;;;;4.70;3.35;;;;;;;;;;8226489;28;20392;-72
2021/07/31 17:23:26;;;;;;;4.28;3.22;;;;;;;;;;8207444;28;20037;-72
2021/07/31 17:27:32;;;;;;;4.82;3.10;;;;;;;;;;8262007;28;20064;-72
2021/07/31 17:31:37;;;;;;;4.65;3.33;;;;;;;;;;8211272;28;20484;-73
2021/07/31 17:35:41;;;;;;;6.55;3.72;;;;;;;;;;8165387;28;20044;-73
2021/07/31 17:39:46;;;;;;;10.23;4.38;;;;;;;;;;8255489;28;20388;-73
2021/07/31 17:43:50;;;;;;;7.68;3.90;;;;;;;;;;8258567;28;20472;-72
2021/07/31 17:47:55;;;;;;;9.88;3.40;;;;;;;;;;8257248;28;20325;-73
2021/07/31 17:52:00;;;;;;;5.65;4.22;;;;;;;;;;8257518;28;20061;-72
2021/07/31 17:56:06;;;;;;;7.13;4.60;;;;;;;;;;8256624;28;20109;-73
2021/07/31 18:00:12;;;;;;;16.23;5.60;;;;;;;;;;8220080;28;20037;-73
2021/07/31 18:04:18;;;;;;;6.85;3.92;;;;;;;;;;8246922;28;20473;-72
2021/07/31 18:08:23;;;;;;;7.57;4.47;;;;;;;;;;8226239;28;20460;-73
2021/07/31 18:12:28;;;;;;;14.10;5.22;;;;;;;;;;8229962;28;20490;-72
2021/07/31 18:16:36;;;;;;;239.27;79.80;;;;;;;;;;8225477;28;20520;-73
2021/07/31 18:20:55;;;;;;;73.55;28.58;;;;;;;;;;8259653;28;20414;-74
2021/07/31 18:25:33;;;;;;;9.05;5.43;;;;;;;;;;8250472;28;20500;-75
2021/07/31 18:29:45;;;;;;;7.65;4.45;;;;;;;;;;8250466;28;20517;-74
2021/07/31 18:33:49;;;;;;;10.15;4.53;;;;;;;;;;8255784;28;20384;-73
2021/07/31 18:37:56;;;;;;;6.88;4.80;;;;;;;;;;8254975;28;20464;-73
2021/07/31 18:42:00;;;;;;;12.38;6.25;;;;;;;;;;8255463;28;20368;-72
2021/07/31 18:46:06;;;;;;;10.77;6.63;;;;;;;;;;8254020;28;20067;-73
2021/07/31 18:50:12;;;;;;;19.15;9.07;;;;;;;;;;8243321;28;20471;-73
2021/07/31 18:54:17;;;;;;;21.35;12.90;;;;;;;;;;8255365;28;20063;-73
2021/07/31 18:58:23;;;;;;;47.17;26.75;;;;;;;;;;8211030;28;20063;-72
2021/07/31 19:02:28;;;;;;;25.27;11.73;;;;;;;;;;8254142;28;20499;-73
2021/07/31 19:06:35;;;;;;;26.77;12.50;;;;;;;;;;8251893;28;20053;-72
2021/07/31 19:59:13;;;;;;;11.90;6.97;;;;;;;;;;8313427;27;2159928;-73
2021/07/31 20:03:17;;;;;;;10.10;7.35;;;;;;;;;;8296759;28;20526;-74
2021/07/31 20:07:21;;;;;;;20.88;10.40;;;;;;;;;;8219314;28;20060;-73
2021/07/31 20:11:26;;;;;;;14.15;7.25;;;;;;;;;;8235071;28;20362;-75
2021/07/31 20:15:31;;;;;;;14.85;7.00;;;;;;;;;;8235015;28;20106;-75
2021/07/31 20:19:35;;;;;;;11.75;4.93;;;;;;;;;;8235067;28;20353;-73
2021/07/31 20:23:39;;;;;;;15.38;6.53;;;;;;;;;;8246522;28;20385;-74
2021/07/31 20:27:43;;;;;;;19.20;8.98;;;;;;;;;;8250017;28;20498;-74
2021/07/31 20:31:49;;;;;;;14.18;7.43;;;;;;;;;;8251391;28;20578;-74
2021/07/31 20:35:54;;;;;;;15.10;7.88;;;;;;;;;;8251416;28;20468;-73
2021/07/31 20:39:59;;;;;;;12.00;7.28;;;;;;;;;;8256065;28;20464;-74
2021/07/31 20:44:08;;;;;;;13.80;7.40;;;;;;;;;;8251764;28;20061;-73
2021/07/31 20:48:17;;;;;;;16.45;8.27;;;;;;;;;;8253577;28;20509;-74
2021/07/31 20:52:21;;;;;;;11.75;7.38;;;;;;;;;;8249771;28;20488;-74
2021/07/31 20:56:30;;;;;;;10.10;6.65;;;;;;;;;;8252958;28;20492;-73
2021/07/31 21:00:34;;;;;;;9.52;6.50;;;;;;;;;;8236886;28;20047;-73
2021/07/31 21:04:40;;;;;;;13.38;7.95;;;;;;;;;;8253727;28;20479;-72
2021/07/31 21:08:48;;;;;;;18.40;9.07;;;;;;;;;;8243271;28;20456;-73
2021/07/31 21:12:54;;;;;;;17.23;10.07;;;;;;;;;;8195874;28;20349;-72
2021/07/31 21:16:59;;;;;;;15.00;7.72;;;;;;;;;;8228341;28;20458;-74
2021/07/31 21:21:04;;;;;;;11.88;6.90;;;;;;;;;;8211677;28;20400;-73
2021/07/31 21:25:10;;;;;;;15.52;7.00;;;;;;;;;;8211186;28;20420;-73
2021/07/31 21:29:16;;;;;;;12.43;6.85;;;;;;;;;;8195189;28;20361;-72
2021/07/31 21:33:21;;;;;;;10.68;7.20;;;;;;;;;;8210908;28;20460;-73
2021/07/31 21:37:27;;;;;;;10.10;7.07;;;;;;;;;;8211184;28;20494;-73
2021/07/31 21:41:32;;;;;;;11.23;6.10;;;;;;;;;;8209177;28;20399;-74
2021/07/31 21:45:37;;;;;;;8.70;6.43;;;;;;;;;;8229080;28;20333;-73
2021/07/31 21:49:42;;;;;;;14.05;7.43;;;;;;;;;;8193704;28;20452;-73
2021/07/31 21:53:48;;;;;;;7.97;6.22;;;;;;;;;;8209714;28;20364;-72
2021/07/31 21:57:53;;;;;;;9.63;6.80;;;;;;;;;;8227936;28;20061;-72
2021/07/31 22:01:58;;;;;;;9.10;6.18;;;;;;;;;;8192853;28;20408;-72
2021/07/31 22:06:04;;;;;;;9.95;6.20;;;;;;;;;;8229643;28;20486;-72
2021/07/31 22:10:10;;;;;;;8.73;5.82;;;;;;;;;;8226725;28;20464;-71
2021/07/31 22:14:16;;;;;;;9.32;5.95;;;;;;;;;;8227730;28;20578;-72
2021/07/31 22:18:21;;;;;;;9.23;6.22;;;;;;;;;;8226739;28;20457;-72
2021/07/31 22:22:26;;;;;;;10.85;7.35;;;;;;;;;;8224477;28;20072;-72
2021/07/31 22:26:30;;;;;;;9.55;6.97;;;;;;;;;;8227998;28;20356;-73
2021/07/31 22:30:35;;;;;;;15.70;7.70;;;;;;;;;;8208923;28;20367;-72
2021/07/31 22:34:39;;;;;;;11.35;6.53;;;;;;;;;;8227863;28;20360;-73
2021/07/31 22:38:44;;;;;;;9.23;6.25;;;;;;;;;;8208684;28;20456;-72
2021/07/31 22:42:49;;;;;;;10.20;7.07;;;;;;;;;;8207289;28;20356;-71
2021/07/31 22:46:55;;;;;;;10.15;6.30;;;;;;;;;;8206541;28;20395;-72
2021/07/31 22:50:58;;;;;;;13.32;6.70;;;;;;;;;;8224431;28;20041;-73
2021/07/31 22:55:05;;;;;;;9.15;5.95;;;;;;;;;;8226321;28;20431;-73
2021/07/31 22:59:10;;;;;;;11.00;6.60;;;;;;;;;;8206440;28;20357;-72
2021/07/31 23:03:13;;;;;;;9.85;6.05;;;;;;;;;;8226920;28;20395;-73
2021/07/31 23:07:19;;;;;;;8.55;6.07;;;;;;;;;;8223830;28;20481;-72
2021/07/31 23:11:22;;;;;;;7.97;5.80;;;;;;;;;;8224850;28;20041;-72
2021/07/31 23:15:27;;;;;;;10.30;6.18;;;;;;;;;;8225148;28;20041;-72
2021/07/31 23:19:31;;;;;;;11.30;6.20;;;;;;;;;;8223445;28;20046;-73
2021/07/31 23:23:38;;;;;;;9.50;5.72;;;;;;;;;;8221639;28;20109;-72
2021/07/31 23:27:42;;;;;;;6.85;5.00;;;;;;;;;;8206306;28;20490;-72
2021/07/31 23:31:48;;;;;;;9.18;6.18;;;;;;;;;;8225119;28;20464;-71
2021/07/31 23:35:54;;;;;;;7.93;5.15;;;;;;;;;;8225304;28;20507;-73
2021/07/31 23:39:59;;;;;;;7.30;5.10;;;;;;;;;;8223776;28;20504;-72
2021/07/31 23:44:04;;;;;;;6.60;3.92;;;;;;;;;;8224639;28;20472;-72
2021/07/31 23:48:09;;;;;;;7.10;4.28;;;;;;;;;;8224325;28;20068;-72
2021/07/31 23:52:15;;;;;;;6.90;4.45;;;;;;;;;;8224045;28;20396;-73
2021/07/31 23:56:20;;;;;;;7.18;4.20;;;;;;;;;;8223177;28;20379;-72
